createdAt,value
2022-08-09T00:00:11.960Z,58.44
2022-08-09T00:02:49.034Z,58.50
2022-08-09T00:06:17.559Z,58.82
2022-08-09T00:08:11.406Z,59.03
2022-08-09T00:10:58.838Z,59.51
2022-08-09T00:13:27.214Z,60.01
2022-08-09T00:15:59.508Z,60.08
2022-08-09T00:18:35.876Z,60.35
2022-08-09T00:21:04.991Z,60.40
2022-08-09T00:23:55.133Z,60.60
2022-08-09T00:26:29.934Z,60.70
2022-08-09T00:29:02.213Z,60.85
2022-08-09T00:31:57.663Z,61.23
2022-08-09T00:34:19.660Z,61.20
2022-08-09T00:36:48.914Z,61.72
2022-08-09T00:40:09.448Z,61.44
2022-08-09T00:44:19.390Z,62.08
2022-08-09T00:44:56.108Z,62.58
2022-08-09T00:47:25.528Z,62.17
2022-08-09T00:49:56.509Z,62.24
2022-08-09T00:52:30.514Z,62.75
2022-08-09T00:55:01.758Z,62.48
2022-08-09T00:57:34.007Z,62.84
2022-08-09T01:00:21.331Z,63.67
2022-08-09T01:02:54.887Z,63.72
2022-08-09T01:05:53.348Z,63.29
2022-08-09T01:08:28.232Z,63.97
2022-08-09T01:11:15.085Z,64.33
2022-08-09T01:13:59.341Z,64.01
2022-08-09T01:16:33.338Z,64.34
2022-08-09T01:19:28.948Z,64.40
2022-08-09T01:22:37.850Z,64.13
2022-08-09T01:25:25.955Z,64.46
2022-08-09T01:27:58.595Z,64.39
2022-08-09T01:30:28.497Z,64.96
2022-08-09T01:33:03.669Z,65.49
2022-08-09T01:35:39.197Z,65.01
2022-08-09T01:38:15.757Z,65.14
2022-08-09T01:40:52.376Z,65.58
2022-08-09T01:43:24.320Z,65.40
2022-08-09T01:45:58.078Z,65.77
2022-08-09T01:48:31.364Z,66.09
2022-08-09T01:51:00.879Z,65.80
2022-08-09T01:53:41.387Z,66.25
2022-08-09T01:56:11.978Z,65.73
2022-08-09T01:58:44.158Z,66.35
2022-08-09T02:01:18.315Z,66.07
2022-08-09T02:03:48.756Z,66.68
2022-08-09T02:06:45.567Z,66.96
2022-08-09T02:09:42.174Z,66.67
2022-08-09T02:12:18.005Z,67.08
2022-08-09T02:14:52.964Z,67.20
2022-08-09T02:18:09.804Z,67.20
2022-08-09T02:20:26.421Z,66.73
2022-08-09T02:23:08.298Z,66.28
2022-08-09T02:25:42.442Z,66.78
2022-08-09T02:28:24.082Z,66.60
2022-08-09T02:30:59.768Z,66.37
2022-08-09T02:33:37.725Z,66.80
2022-08-09T02:36:10.558Z,66.00
2022-08-09T02:38:47.792Z,65.86
2022-08-09T02:41:21.683Z,65.90
2022-08-09T02:43:55.593Z,66.39
2022-08-09T02:46:28.891Z,67.31
2022-08-09T02:49:02.979Z,67.85
2022-08-09T02:51:40.249Z,67.52
2022-08-09T02:54:14.227Z,67.83
2022-08-09T02:56:51.124Z,68.01
2022-08-09T02:59:22.734Z,68.08
2022-08-09T03:02:05.533Z,67.96
2022-08-09T03:04:35.921Z,68.57
2022-08-09T03:07:13.878Z,68.50
2022-08-09T03:09:43.802Z,68.64
2022-08-09T03:12:24.135Z,68.83
2022-08-09T03:14:53.048Z,68.78
2022-08-09T03:17:26.521Z,68.93
2022-08-09T03:20:03.376Z,69.32
2022-08-09T03:22:42.280Z,69.37
2022-08-09T03:25:26.570Z,69.63
2022-08-09T03:28:03.354Z,69.46
2022-08-09T03:30:33.405Z,69.53
2022-08-09T03:33:13.352Z,70.03
2022-08-09T03:36:13.414Z,69.70
2022-08-09T03:38:41.612Z,70.27
2022-08-09T03:41:10.454Z,70.24
2022-08-09T03:44:03.285Z,70.49
2022-08-09T03:46:32.017Z,70.14
2022-08-09T03:49:07.883Z,70.32
2022-08-09T03:51:55.267Z,70.25
2022-08-09T03:54:29.214Z,70.25
2022-08-09T03:56:58.477Z,69.11
2022-08-09T03:59:53.494Z,68.75
2022-08-09T04:02:15.080Z,69.56
2022-08-09T04:04:49.329Z,69.21
2022-08-09T04:07:19.139Z,68.52
2022-08-09T04:09:50.188Z,69.23
2022-08-09T04:12:39.163Z,69.50
2022-08-09T04:15:16.989Z,69.19
2022-08-09T04:17:57.765Z,66.81
2022-08-09T04:20:27.383Z,64.03
2022-08-09T04:22:57.121Z,60.86
2022-08-09T04:25:27.329Z,57.93
2022-08-09T04:28:02.518Z,56.68
2022-08-09T04:30:32.376Z,54.09
2022-08-09T04:33:01.275Z,50.89
2022-08-09T04:35:32.867Z,48.44
2022-08-09T04:38:03.559Z,46.15
2022-08-09T04:40:45.744Z,43.57
2022-08-09T04:43:14.005Z,41.75
2022-08-09T04:45:53.702Z,40.10
2022-08-09T04:48:23.847Z,38.74
2022-08-09T04:51:02.786Z,38.21
2022-08-09T04:53:31.510Z,36.75
2022-08-09T04:56:00.289Z,35.73
2022-08-09T04:58:29.072Z,34.80
2022-08-09T05:01:00.323Z,33.16
2022-08-09T05:03:40.636Z,31.72
2022-08-09T05:06:27.195Z,32.89
2022-08-09T05:09:00.451Z,32.63
2022-08-09T05:11:32.518Z,30.71
2022-08-09T05:14:06.057Z,30.28
2022-08-09T05:16:58.172Z,28.73
2022-08-09T05:19:25.769Z,29.06
2022-08-09T05:21:56.535Z,29.17
2022-08-09T05:24:24.924Z,28.75
2022-08-09T05:26:53.437Z,29.69
2022-08-09T05:29:23.998Z,28.66
2022-08-09T05:31:57.667Z,26.68
2022-08-09T05:34:31.289Z,26.26
2022-08-09T05:37:06.233Z,26.31
2022-08-09T05:39:42.587Z,26.59
2022-08-09T05:42:17.345Z,25.96
2022-08-09T05:44:50.817Z,24.98
2022-08-09T05:47:19.631Z,24.48
2022-08-09T05:50:30.196Z,24.00
2022-08-09T05:52:39.682Z,22.83
2022-08-09T05:55:09.785Z,22.41
2022-08-09T05:57:55.548Z,21.61
2022-08-09T06:00:25.736Z,21.93
2022-08-09T06:02:56.805Z,21.08
2022-08-09T06:05:50.532Z,22.10
2022-08-09T06:08:19.712Z,19.64
2022-08-09T06:10:53.173Z,20.35
2022-08-09T06:13:21.241Z,21.50
2022-08-09T06:15:51.783Z,19.50
2022-08-09T06:18:24.207Z,20.99
2022-08-09T06:20:57.584Z,21.12
2022-08-09T06:23:57.167Z,19.91
2022-08-09T06:26:20.938Z,20.49
2022-08-09T06:29:00.313Z,20.24
2022-08-09T06:31:39.254Z,21.99
2022-08-09T06:34:22.986Z,19.98
2022-08-09T06:36:59.264Z,19.78
2022-08-09T06:39:48.499Z,20.01
2022-08-09T06:42:19.782Z,19.45
2022-08-09T06:44:51.870Z,18.36
2022-08-09T06:47:23.676Z,18.34
2022-08-09T06:50:14.782Z,17.88
2022-08-09T06:52:45.905Z,18.04
2022-08-09T06:55:17.674Z,17.19
2022-08-09T06:58:01.448Z,17.05
2022-08-09T07:00:49.453Z,16.75
2022-08-09T07:03:27.775Z,15.84
2022-08-09T07:06:04.606Z,16.31
2022-08-09T07:08:35.295Z,16.45
2022-08-09T07:11:07.290Z,14.78
2022-08-09T07:14:04.062Z,16.27
2022-08-09T07:16:42.173Z,15.93
2022-08-09T07:19:15.570Z,15.97
2022-08-09T07:21:57.287Z,14.90
2022-08-09T07:24:31.478Z,15.01
2022-08-09T07:27:03.392Z,17.11
2022-08-09T07:29:42.921Z,14.38
2022-08-09T07:32:11.250Z,14.08
2022-08-09T07:34:39.058Z,14.43
2022-08-09T07:37:15.536Z,14.11
2022-08-09T07:39:43.997Z,13.62
2022-08-09T07:42:16.378Z,14.17
2022-08-09T07:44:52.164Z,14.04
2022-08-09T07:47:23.165Z,13.06
2022-08-09T07:50:04.661Z,14.00
2022-08-09T07:52:36.613Z,14.22
2022-08-09T07:55:09.613Z,14.18
2022-08-09T07:57:47.069Z,14.27
2022-08-09T08:00:20.780Z,12.92
2022-08-09T08:03:05.217Z,13.39
2022-08-09T08:05:53.579Z,12.79
2022-08-09T08:09:00.669Z,13.11
2022-08-09T08:12:09.661Z,13.75
2022-08-09T08:14:01.749Z,14.88
2022-08-09T08:16:31.802Z,14.18
2022-08-09T08:19:03.141Z,13.83
2022-08-09T08:21:32.501Z,13.34
2022-08-09T08:24:01.045Z,14.10
2022-08-09T08:26:54.763Z,14.20
2022-08-09T08:29:20.069Z,16.06
2022-08-09T08:32:04.518Z,15.11
2022-08-09T08:34:36.503Z,14.31
2022-08-09T08:37:05.156Z,16.12
2022-08-09T08:39:43.413Z,15.35
2022-08-09T08:42:12.457Z,14.24
2022-08-09T08:44:43.925Z,14.08
2022-08-09T08:47:16.107Z,14.83
2022-08-09T08:49:48.375Z,15.94
2022-08-09T08:55:07.653Z,19.05
2022-08-09T08:57:37.261Z,18.67
2022-08-09T09:00:17.328Z,16.69
2022-08-09T09:03:08.773Z,17.89
2022-08-09T09:06:00.787Z,19.08
2022-08-09T09:08:37.720Z,18.99
2022-08-09T09:11:08.531Z,18.19
2022-08-09T09:13:47.365Z,19.22
2022-08-09T09:16:30.369Z,19.95
2022-08-09T09:19:22.594Z,18.01
2022-08-09T09:22:04.985Z,17.69
2022-08-09T09:24:35.326Z,19.17
2022-08-09T09:27:07.112Z,19.66
2022-08-09T09:30:13.870Z,18.96
2022-08-09T09:32:35.131Z,20.39
2022-08-09T09:35:09.575Z,19.18
2022-08-09T09:37:40.702Z,18.90
2022-08-09T09:40:11.713Z,17.81
2022-08-09T09:42:43.059Z,18.87
2022-08-09T09:45:25.770Z,17.57
2022-08-09T09:47:58.734Z,19.95
2022-08-09T09:50:49.304Z,20.34
2022-08-09T09:53:34.385Z,21.46
2022-08-09T09:56:30.976Z,21.77
2022-08-09T09:58:57.453Z,20.26
2022-08-09T10:01:31.401Z,20.48
2022-08-09T10:04:16.309Z,21.08
2022-08-09T10:06:52.063Z,21.32
2022-08-09T10:09:24.050Z,21.56
2022-08-09T10:12:12.851Z,20.34
2022-08-09T10:14:48.452Z,20.36
2022-08-09T10:17:40.045Z,20.31
2022-08-09T10:20:27.747Z,20.81
2022-08-09T10:23:17.254Z,20.37
2022-08-09T10:26:06.266Z,19.23
2022-08-09T10:28:35.899Z,18.40
2022-08-09T10:34:10.344Z,21.02
2022-08-09T10:36:43.815Z,20.17
2022-08-09T10:39:16.015Z,18.75
2022-08-09T10:41:48.009Z,17.51
2022-08-09T10:44:19.280Z,20.22
2022-08-09T10:48:16.872Z,21.06
2022-08-09T10:50:14.607Z,21.05
2022-08-09T10:53:10.382Z,20.25
2022-08-09T10:55:58.216Z,20.83
2022-08-09T10:58:33.557Z,21.36
2022-08-09T11:03:03.250Z,21.73
2022-08-09T11:04:27.778Z,20.82
2022-08-09T11:07:57.217Z,20.12
2022-08-09T11:10:54.721Z,19.73
2022-08-09T11:13:51.295Z,18.74
2022-08-09T11:16:38.497Z,17.28
2022-08-09T11:19:10.525Z,17.13
2022-08-09T11:22:10.586Z,18.11
2022-08-09T11:25:08.434Z,18.44
2022-08-09T11:28:05.433Z,17.08
2022-08-09T11:30:35.796Z,19.77
2022-08-09T11:33:06.752Z,20.49
2022-08-09T11:35:49.457Z,20.32
2022-08-09T11:38:22.331Z,18.02
2022-08-09T11:40:57.381Z,18.00
2022-08-09T11:43:43.058Z,17.28
2022-08-09T11:46:12.187Z,17.75
2022-08-09T11:48:51.182Z,18.17
2022-08-09T11:53:00.983Z,19.99
2022-08-09T11:54:28.007Z,21.66
2022-08-09T11:57:59.674Z,21.15
2022-08-09T12:00:26.261Z,22.15
2022-08-09T12:02:56.505Z,21.94
2022-08-09T12:05:37.655Z,21.79
2022-08-09T12:08:12.514Z,20.88
2022-08-09T12:10:53.057Z,20.78
2022-08-09T12:14:07.508Z,20.96
2022-08-09T12:16:37.294Z,19.97
2022-08-09T12:19:10.063Z,21.73
2022-08-09T12:21:50.385Z,22.85
2022-08-09T12:24:24.423Z,23.32
2022-08-09T12:29:13.078Z,23.89
2022-08-09T12:30:01.608Z,24.32
2022-08-09T12:32:44.249Z,23.21
2022-08-09T12:35:19.450Z,22.71
2022-08-09T12:37:52.222Z,23.24
2022-08-09T12:40:26.822Z,21.36
2022-08-09T12:42:56.117Z,22.87
2022-08-09T12:45:34.704Z,24.13
2022-08-09T12:48:19.966Z,24.15
2022-08-09T12:50:57.134Z,24.00
2022-08-09T12:53:35.036Z,23.37
2022-08-09T12:56:43.283Z,23.40
2022-08-09T12:59:10.563Z,23.29
2022-08-09T13:01:48.969Z,22.88
2022-08-09T13:04:38.181Z,22.35
2022-08-09T13:07:16.371Z,23.29
2022-08-09T13:09:55.488Z,23.28
2022-08-09T13:12:28.195Z,23.44
2022-08-09T13:15:07.217Z,23.99
2022-08-09T13:18:03.544Z,24.23
2022-08-09T13:20:37.458Z,22.90
2022-08-09T13:24:15.830Z,23.24
2022-08-09T13:26:39.329Z,23.73
2022-08-09T13:29:09.593Z,24.19
2022-08-09T13:32:19.257Z,24.56
2022-08-09T13:34:44.085Z,25.44
2022-08-09T13:37:50.751Z,24.68
2022-08-09T13:41:46.067Z,25.23
2022-08-09T13:42:53.662Z,24.90
2022-08-09T13:45:32.641Z,23.81
2022-08-09T13:48:10.929Z,24.06
2022-08-09T13:50:39.276Z,23.48
2022-08-09T13:53:09.051Z,24.14
2022-08-09T13:55:38.152Z,24.39
2022-08-09T13:58:08.059Z,23.92
2022-08-09T14:00:50.385Z,24.45
2022-08-09T14:04:04.879Z,25.12
2022-08-09T14:06:19.342Z,23.79
2022-08-09T14:08:55.634Z,23.75
2022-08-09T14:11:23.452Z,24.41
2022-08-09T14:14:23.935Z,24.58
2022-08-09T14:16:40.384Z,23.86
2022-08-09T14:19:08.404Z,23.36
2022-08-09T14:21:36.693Z,24.18
2022-08-09T14:24:18.782Z,24.24
2022-08-09T14:26:54.981Z,25.10
2022-08-09T14:30:18.661Z,24.85
2022-08-09T14:32:13.291Z,25.02
2022-08-09T14:34:45.060Z,24.83
2022-08-09T14:37:13.173Z,24.59
2022-08-09T14:39:46.438Z,24.36
2022-08-09T14:42:39.232Z,23.88
2022-08-09T14:46:46.714Z,22.74
2022-08-09T14:48:00.359Z,22.06
2022-08-09T14:50:32.661Z,22.51
2022-08-09T14:53:01.237Z,23.12
2022-08-09T14:55:32.543Z,23.46
2022-08-09T14:58:02.850Z,24.39
2022-08-09T15:00:31.672Z,24.89
2022-08-09T15:03:00.080Z,25.19
2022-08-09T15:05:29.488Z,25.40
2022-08-09T15:07:58.177Z,24.96
2022-08-09T15:10:26.748Z,24.41
2022-08-09T15:12:56.814Z,23.67
2022-08-09T15:15:28.580Z,23.91
2022-08-09T15:17:58.567Z,22.90
2022-08-09T15:22:00.453Z,22.95
2022-08-09T15:24:03.094Z,23.86
2022-08-09T15:26:02.931Z,24.46
2022-08-09T15:28:34.731Z,24.52
2022-08-09T15:31:10.000Z,25.20
2022-08-09T15:34:17.190Z,24.84
2022-08-09T15:36:30.104Z,25.29
2022-08-09T15:39:00.119Z,25.09
2022-08-09T15:41:31.284Z,25.45
2022-08-09T15:44:01.905Z,25.00
2022-08-09T15:46:34.481Z,25.20
2022-08-09T15:49:21.792Z,25.70
2022-08-09T15:52:04.015Z,25.50
2022-08-09T15:54:48.991Z,24.94
2022-08-09T15:57:19.061Z,25.24
2022-08-09T16:00:06.987Z,25.34
2022-08-09T16:02:35.821Z,24.18
2022-08-09T16:05:06.741Z,24.39
2022-08-09T16:07:39.452Z,25.01
2022-08-09T16:10:38.383Z,24.31
2022-08-09T16:13:03.415Z,25.01
2022-08-09T16:16:10.446Z,24.66
2022-08-09T16:18:21.335Z,24.47
2022-08-09T16:20:50.556Z,25.03
2022-08-09T16:23:19.873Z,25.06
2022-08-09T16:25:49.768Z,25.12
2022-08-09T16:28:17.758Z,25.10
2022-08-09T16:30:58.733Z,25.69
2022-08-09T16:33:27.521Z,25.45
2022-08-09T16:36:02.096Z,25.43
2022-08-09T16:38:32.384Z,26.07
2022-08-09T16:41:04.053Z,25.92
2022-08-09T16:43:32.657Z,25.74
2022-08-09T16:46:02.197Z,25.76
2022-08-09T16:48:39.567Z,25.94
2022-08-09T16:51:18.957Z,25.55
2022-08-09T16:54:22.419Z,25.74
2022-08-09T16:56:37.517Z,25.97
2022-08-09T16:59:17.153Z,26.82
2022-08-09T17:01:51.395Z,27.06
2022-08-09T17:04:28.005Z,27.49
2022-08-09T17:08:41.464Z,27.42
2022-08-09T17:09:47.333Z,27.65
2022-08-09T17:12:16.022Z,27.63
2022-08-09T17:14:47.630Z,27.85
2022-08-09T17:17:27.223Z,27.74
2022-08-09T17:20:29.903Z,28.07
2022-08-09T17:22:50.057Z,28.45
2022-08-09T17:25:22.072Z,27.81
2022-08-09T17:27:54.549Z,28.10
2022-08-09T17:30:25.791Z,27.96
2022-08-09T17:33:00.684Z,27.79
2022-08-09T17:35:35.778Z,28.22
2022-08-09T17:38:30.595Z,28.29
2022-08-09T17:40:57.957Z,28.10
2022-08-09T17:43:34.270Z,28.35
2022-08-09T17:46:08.983Z,28.42
2022-08-09T17:48:46.738Z,28.44
2022-08-09T17:51:21.494Z,28.51
2022-08-09T17:53:53.018Z,28.61
2022-08-09T17:56:27.403Z,28.44
2022-08-09T17:58:56.732Z,28.86
2022-08-09T18:01:24.582Z,28.90
2022-08-09T18:03:54.896Z,28.60
2022-08-09T18:06:30.955Z,28.67
2022-08-09T18:08:59.866Z,28.88
2022-08-09T18:11:27.972Z,29.04
2022-08-09T18:14:03.349Z,28.95
2022-08-09T18:16:36.061Z,29.19
2022-08-09T18:20:56.143Z,29.46
2022-08-09T18:22:13.295Z,29.44
2022-08-09T18:24:46.022Z,29.80
2022-08-09T18:27:49.364Z,30.06
2022-08-09T18:30:40.268Z,30.04
2022-08-09T18:32:54.662Z,30.24
2022-08-09T18:35:58.337Z,30.45
2022-08-09T18:38:13.128Z,30.55
2022-08-09T18:40:41.087Z,30.51
2022-08-09T18:43:08.953Z,31.14
2022-08-09T18:46:51.089Z,30.99
2022-08-09T18:48:30.126Z,31.15
2022-08-09T18:51:02.166Z,31.21
2022-08-09T18:53:56.980Z,31.30
2022-08-09T18:56:20.062Z,31.63
2022-08-09T18:58:56.440Z,31.94
2022-08-09T19:01:24.868Z,32.13
2022-08-09T19:04:06.311Z,32.21
2022-08-09T19:06:38.527Z,31.95
2022-08-09T19:09:07.653Z,32.23
2022-08-09T19:11:39.770Z,31.90
2022-08-09T19:14:07.753Z,32.14
2022-08-09T19:16:38.057Z,31.99
2022-08-09T19:19:21.500Z,32.49
2022-08-09T19:22:04.837Z,32.40
2022-08-09T19:24:38.606Z,33.45
2022-08-09T19:27:23.261Z,33.37
2022-08-09T19:30:23.239Z,34.20
2022-08-09T19:32:39.099Z,33.74
2022-08-09T19:35:08.096Z,34.16
2022-08-09T19:37:54.602Z,34.60
2022-08-09T19:40:34.087Z,35.06
2022-08-09T19:43:03.874Z,35.60
2022-08-09T19:45:39.243Z,35.49
2022-08-09T19:48:10.801Z,36.28
2022-08-09T19:50:49.206Z,35.53
2022-08-09T19:53:21.113Z,35.96
2022-08-09T19:56:03.014Z,35.72
2022-08-09T19:58:34.226Z,36.07
2022-08-09T20:01:02.041Z,36.33
2022-08-09T20:04:17.443Z,36.61
2022-08-09T20:06:23.853Z,36.01
2022-08-09T20:08:59.856Z,36.39
2022-08-09T20:11:43.381Z,36.58
2022-08-09T20:14:16.945Z,36.49
2022-08-09T20:16:53.750Z,36.19
2022-08-09T20:19:48.175Z,36.50
2022-08-09T20:22:14.305Z,36.66
2022-08-09T20:24:53.429Z,36.89
2022-08-09T20:27:22.848Z,36.60
2022-08-09T20:29:52.611Z,36.41
2022-08-09T20:32:30.727Z,37.01
2022-08-09T20:35:02.328Z,37.23
2022-08-09T20:37:37.901Z,37.10
2022-08-09T20:40:26.833Z,37.65
2022-08-09T20:42:59.799Z,37.60
2022-08-09T20:45:59.169Z,37.78
2022-08-09T20:48:25.623Z,38.20
2022-08-09T20:50:58.621Z,38.51
2022-08-09T20:53:35.444Z,38.34
2022-08-09T20:56:09.438Z,38.12
2022-08-09T20:58:49.967Z,38.43
2022-08-09T21:01:35.199Z,38.23
2022-08-09T21:05:48.605Z,39.06
2022-08-09T21:06:54.989Z,39.30
2022-08-09T21:09:32.712Z,39.31
2022-08-09T21:14:42.569Z,39.72
2022-08-09T21:18:21.163Z,40.18
2022-08-09T21:20:22.435Z,40.30
2022-08-09T21:22:52.473Z,40.67
2022-08-09T21:25:43.734Z,40.43
2022-08-09T21:28:34.377Z,40.85
2022-08-09T21:31:13.734Z,41.38
2022-08-09T21:33:49.474Z,41.40
2022-08-09T21:36:20.377Z,41.52
2022-08-09T21:38:51.112Z,41.11
2022-08-09T21:42:04.148Z,41.44
2022-08-09T21:44:33.701Z,41.95
2022-08-09T21:47:03.848Z,41.68
2022-08-09T21:49:40.032Z,41.63
2022-08-09T21:52:14.459Z,42.04
2022-08-09T21:54:46.378Z,42.54
2022-08-09T21:57:37.720Z,43.28
2022-08-09T22:00:11.190Z,43.66
2022-08-09T22:02:40.014Z,44.04
2022-08-09T22:05:22.694Z,44.41
2022-08-09T22:07:53.281Z,44.17
2022-08-09T22:10:23.953Z,44.47
2022-08-09T22:12:52.855Z,45.05
2022-08-09T22:15:33.442Z,44.91
2022-08-09T22:18:03.478Z,45.20
2022-08-09T22:20:31.572Z,45.39
2022-08-09T22:22:59.691Z,46.06
2022-08-09T22:26:05.801Z,46.17
2022-08-09T22:28:29.427Z,46.42
2022-08-09T22:31:02.132Z,46.18
2022-08-09T22:33:48.518Z,46.60
2022-08-09T22:36:19.074Z,46.83
2022-08-09T22:38:48.216Z,46.71
2022-08-09T22:41:16.125Z,46.79
2022-08-09T22:44:03.040Z,47.39
2022-08-09T22:48:14.266Z,47.04
2022-08-09T22:49:21.895Z,47.33
2022-08-09T22:51:56.884Z,47.68
2022-08-09T22:54:27.309Z,48.17
2022-08-09T22:56:57.056Z,48.01
2022-08-09T22:59:56.023Z,48.80
2022-08-09T23:02:20.152Z,49.36
2022-08-09T23:04:54.060Z,50.13
2022-08-09T23:08:27.792Z,50.27
2022-08-09T23:10:29.062Z,51.07
2022-08-09T23:12:57.033Z,51.81
2022-08-09T23:15:25.182Z,52.08
2022-08-09T23:17:54.297Z,52.71
2022-08-09T23:20:22.614Z,52.90
2022-08-09T23:22:50.539Z,53.32
2022-08-09T23:25:18.630Z,53.81
2022-08-09T23:27:57.527Z,53.35
2022-08-09T23:30:34.447Z,53.42
2022-08-09T23:33:03.629Z,53.28
2022-08-09T23:35:31.695Z,53.23
2022-08-09T23:38:19.885Z,53.43
2022-08-09T23:40:51.177Z,53.37
2022-08-09T23:43:19.075Z,54.43
2022-08-09T23:45:46.984Z,54.96
2022-08-09T23:48:16.926Z,55.24
2022-08-09T23:50:44.754Z,55.13
2022-08-09T23:53:12.535Z,55.38
2022-08-09T23:55:46.238Z,55.65
2022-08-09T23:58:26.033Z,55.87
